Time;durP1;ratioP1;P1;durP2;ratioP2;P2;SDS_P1;SDS_P2;PMS_P1;PMS_P2;Temp;Humidity;BMP_temperature;BMP_pressure;BME280_temperature;BME280_humidity;BME280_pressure;Samples;Min_cycle;Max_cycle;Signal;HPM_P1;HPM_P2
2021/07/16 00:00:20;;;;;;;;;11.50;10.25;;;;;23.27;48.24;101651.38;5076213;27;45567;-50
2021/07/16 00:02:46;;;;;;;;;11.25;9.25;;;;;23.26;48.60;101649.66;5076024;28;46659;-56
2021/07/16 00:05:12;;;;;;;;;10.00;9.00;;;;;23.28;48.62;101647.78;5074660;28;46216;-54
2021/07/16 00:07:39;;;;;;;;;12.00;9.50;;;;;23.25;48.43;101632.09;5075866;27;45278;-57
2021/07/16 00:10:07;;;;;;;;;9.75;9.75;;;;;23.27;48.66;101641.63;5076230;27;45279;-52
2021/07/16 00:12:33;;;;;;;;;12.50;9.75;;;;;23.26;48.40;101650.50;5075620;27;46411;-50
2021/07/16 00:14:59;;;;;;;;;8.50;8.50;;;;;23.27;48.41;101648.72;5075990;27;45311;-51
2021/07/16 00:17:24;;;;;;;;;9.75;8.00;;;;;23.27;48.20;101640.78;5077193;27;45369;-52
2021/07/16 00:19:49;;;;;;;;;9.50;9.25;;;;;23.26;48.47;101639.09;5079541;28;45416;-53
2021/07/16 00:22:15;;;;;;;;;8.25;7.25;;;;;23.27;48.36;101641.63;5079164;27;45338;-53
2021/07/16 00:24:40;;;;;;;;;9.25;7.50;;;;;23.27;48.66;101640.78;5079112;28;45327;-49
2021/07/16 00:27:06;;;;;;;;;9.25;8.50;;;;;23.25;48.28;101638.25;5079231;28;45303;-48
2021/07/16 00:29:31;;;;;;;;;10.00;10.00;;;;;23.27;48.46;101643.44;5079589;27;45956;-50
2021/07/16 00:31:56;;;;;;;;;8.25;8.25;;;;;23.26;48.40;101645.22;5079154;28;45745;-48
2021/07/16 00:34:22;;;;;;;;;11.50;8.75;;;;;23.23;48.26;101634.81;5079034;28;45384;-48
2021/07/16 00:36:48;;;;;;;;;8.50;8.50;;;;;23.25;48.64;101637.38;5079083;28;45319;-50
2021/07/16 00:39:13;;;;;;;;;13.25;10.00;;;;;23.25;48.28;101640.88;5078920;27;45277;-49
2021/07/16 00:41:38;;;;;;;;;12.50;9.50;;;;;23.25;48.44;101632.09;5078887;27;45925;-48
2021/07/16 00:44:04;;;;;;;;;10.00;10.00;;;;;23.27;48.37;101646.09;5078600;27;51265;-49
2021/07/16 00:46:29;;;;;;;;;11.00;9.00;;;;;23.25;48.49;101642.66;5079158;27;45219;-48
2021/07/16 00:48:55;;;;;;;;;10.00;10.00;;;;;23.25;48.15;101632.97;5078985;28;45323;-49
2021/07/16 00:51:20;;;;;;;;;10.50;8.00;;;;;23.26;48.50;101639.09;5077370;28;46162;-49
2021/07/16 00:53:46;;;;;;;;;9.25;8.25;;;;;23.26;48.57;101644.38;5078641;27;45212;-47
2021/07/16 00:56:11;;;;;;;;;9.50;9.50;;;;;23.25;48.17;101638.25;5078703;27;45188;-48
2021/07/16 00:58:37;;;;;;;;;12.25;11.50;;;;;23.26;48.45;101649.66;5078876;28;45370;-48
2021/07/16 01:01:03;;;;;;;;;10.25;10.25;;;;;23.25;48.42;101635.59;5078695;27;45906;-48
2021/07/16 01:03:29;;;;;;;;;9.25;9.25;;;;;23.26;48.37;101654.97;5078850;27;45778;-48
2021/07/16 01:05:54;;;;;;;;;10.00;8.50;;;;;23.26;48.35;101639.09;5078578;27;45464;-48
2021/07/16 01:08:19;;;;;;;;;9.25;8.25;;;;;23.25;48.21;101642.66;5078762;28;45309;-48
2021/07/16 01:10:45;;;;;;;;;10.75;10.50;;;;;23.23;48.13;101637.47;5078224;27;47018;-47
2021/07/16 01:13:13;;;;;;;;;10.75;10.75;;;;;23.24;48.52;101644.47;5078446;27;45287;-48
2021/07/16 01:15:40;;;;;;;;;10.00;8.50;;;;;23.25;48.35;101645.31;5078388;27;45357;-48
2021/07/16 01:18:06;;;;;;;;;12.00;9.25;;;;;23.22;48.45;101637.53;5078663;27;45462;-49
2021/07/16 01:20:32;;;;;;;;;10.50;9.25;;;;;23.24;48.16;101640.97;5078479;27;46121;-57
2021/07/16 01:23:00;;;;;;;;;9.75;8.75;;;;;23.24;48.35;101646.25;5078316;27;45709;-54
2021/07/16 01:25:28;;;;;;;;;9.75;7.75;;;;;23.25;48.44;101645.31;5078323;27;45371;-48
2021/07/16 01:27:56;;;;;;;;;9.50;7.25;;;;;23.25;48.13;101642.66;5078446;27;45237;-48
2021/07/16 01:30:26;;;;;;;;;12.25;10.50;;;;;23.24;48.20;101652.41;5075855;27;45974;-48
2021/07/16 01:32:52;;;;;;;;;11.00;10.00;;;;;23.25;48.13;101654.13;5078055;27;45730;-48
2021/07/16 01:35:17;;;;;;;;;12.25;9.75;;;;;23.24;48.10;101652.41;5078083;27;45366;-51
2021/07/16 01:37:44;;;;;;;;;9.75;9.50;;;;;23.24;48.14;101647.13;5078298;27;45219;-48
2021/07/16 01:40:13;;;;;;;;;9.25;9.25;;;;;23.23;48.20;101647.19;5077786;27;47182;-51
2021/07/16 01:42:42;;;;;;;;;8.75;8.75;;;;;23.24;48.29;101649.75;5077858;27;45885;-54
2021/07/16 01:45:16;;;;;;;;;8.50;8.50;;;;;23.23;48.45;101649.81;5078160;27;45438;-56
2021/07/16 01:47:48;;;;;;;;;12.00;9.25;;;;;23.24;48.56;101648.88;5078201;27;45269;-53
2021/07/16 01:50:15;;;;;;;;;10.25;8.25;;;;;23.23;48.47;101647.19;5077684;27;47064;-55
2021/07/16 01:52:41;;;;;;;;;10.50;9.50;;;;;23.23;48.63;101652.47;5077795;27;45512;-49
2021/07/16 01:55:09;;;;;;;;;8.50;8.00;;;;;23.23;48.30;101649.81;5077883;27;45327;-47
2021/07/16 01:57:34;;;;;;;;;8.00;8.00;;;;;23.24;48.51;101651.53;5078346;27;45520;-54
2021/07/16 02:00:00;;;;;;;;;10.00;10.00;;;;;23.24;48.48;101654.19;5077672;27;45371;-48
2021/07/16 02:02:25;;;;;;;;;7.50;7.50;;;;;23.23;48.76;101650.69;5076305;27;45404;-52
2021/07/16 02:04:51;;;;;;;;;10.75;8.25;;;;;23.21;48.50;101649.03;5077765;27;45322;-51
2021/07/16 02:07:16;;;;;;;;;12.00;9.75;;;;;23.20;48.40;101650.84;5077961;27;45691;-54
2021/07/16 02:09:42;;;;;;;;;9.25;9.00;;;;;23.22;48.27;101648.97;5077594;27;46136;-52
2021/07/16 02:12:07;;;;;;;;;10.00;10.00;;;;;23.21;48.34;101649.03;5077430;27;45450;-48
2021/07/16 02:14:33;;;;;;;;;10.50;9.75;;;;;23.21;48.48;101643.75;5078128;27;45362;-48
2021/07/16 02:17:01;;;;;;;;;9.50;9.50;;;;;23.21;48.55;101641.13;5077689;27;45606;-50
2021/07/16 02:19:27;;;;;;;;;9.75;9.00;;;;;23.23;48.54;101644.53;5077498;27;46103;-54
2021/07/16 02:21:53;;;;;;;;;8.00;7.25;;;;;23.22;48.56;101642.81;5077374;27;45686;-51
2021/07/16 02:24:18;;;;;;;;;11.00;9.00;;;;;23.16;48.47;101630.75;5077448;27;45805;-53
2021/07/16 02:26:44;;;;;;;;;9.75;9.25;;;;;23.23;48.50;101647.19;5076364;28;45290;-53
2021/07/16 02:29:09;;;;;;;;;9.00;9.00;;;;;23.22;48.24;101634.88;5077220;27;45291;-54
2021/07/16 02:31:34;;;;;;;;;11.00;10.00;;;;;23.21;48.31;101630.53;5077619;27;45263;-53
2021/07/16 02:34:00;;;;;;;;;9.00;9.00;;;;;23.21;48.37;101641.13;5077419;28;45260;-53
2021/07/16 02:36:26;;;;;;;;;10.25;8.50;;;;;23.21;48.59;101646.41;5077380;27;45247;-51
2021/07/16 02:38:52;;;;;;;;;10.50;9.25;;;;;23.20;48.61;101640.28;5076880;27;47088;-53
2021/07/16 02:41:17;;;;;;;;;10.25;10.25;;;;;23.20;48.45;101634.97;5077117;28;45803;-51
2021/07/16 02:43:43;;;;;;;;;8.25;8.25;;;;;23.20;48.77;101634.97;5076967;28;45547;-52
2021/07/16 02:46:08;;;;;;;;;8.00;8.00;;;;;23.21;48.67;101643.75;5077467;27;45425;-49
2021/07/16 02:48:34;;;;;;;;;10.00;8.25;;;;;23.20;48.38;101639.44;5077178;27;45993;-55
2021/07/16 02:51:00;;;;;;;;;9.00;7.00;;;;;23.20;48.35;101644.72;5076959;28;45421;-56
2021/07/16 02:53:26;;;;;;;;;7.50;7.50;;;;;23.20;48.99;101636.78;5077020;27;45383;-57
2021/07/16 02:55:52;;;;;;;;;9.25;9.25;;;;;23.20;48.71;101639.44;5076914;27;45412;-53
2021/07/16 02:58:18;;;;;;;;;7.25;7.25;;;;;23.19;48.12;101642.97;5076827;27;47085;-57
2021/07/16 03:00:43;;;;;;;;;8.00;7.75;;;;;23.17;48.66;101641.28;5076739;27;45268;-57
2021/07/16 03:03:09;;;;;;;;;9.75;8.00;;;;;23.20;48.47;101639.44;5077321;28;45213;-55
2021/07/16 03:05:35;;;;;;;;;10.50;7.50;;;;;23.14;48.31;101633.50;5077372;27;45575;-56
2021/07/16 03:08:06;;;;;;;;;4.75;4.00;;;;;23.20;48.58;101647.38;5076511;28;45401;-53
2021/07/16 03:10:33;;;;;;;;;9.75;9.75;;;;;23.19;48.36;101638.56;5076706;27;45448;-49
2021/07/16 03:13:01;;;;;;;;;7.50;6.00;;;;;23.19;48.75;101640.34;5076743;27;45487;-52
2021/07/16 03:15:26;;;;;;;;;7.75;7.75;;;;;23.19;48.75;101642.97;5076843;27;45168;-55
2021/07/16 03:17:53;;;;;;;;;8.00;8.00;;;;;23.20;48.35;101644.72;5076363;27;46054;-55
2021/07/16 03:20:25;;;;;;;;;9.25;9.25;;;;;23.19;48.26;101640.34;5075144;28;45843;-58
2021/07/16 03:22:51;;;;;;;;;7.25;7.25;;;;;23.19;48.80;101638.56;5076628;27;45260;-58
2021/07/16 03:25:18;;;;;;;;;9.00;7.00;;;;;23.19;48.76;101646.50;5076806;27;45227;-58
2021/07/16 03:27:44;;;;;;;;;8.25;8.25;;;;;23.19;48.61;101642.97;5076309;27;46384;-57
2021/07/16 03:30:14;;;;;;;;;7.00;7.00;;;;;23.16;48.64;101644.84;5076678;27;45329;-58
2021/07/16 03:32:40;;;;;;;;;8.50;8.50;;;;;23.17;48.47;101643.91;5076865;28;45298;-57
2021/07/16 03:35:06;;;;;;;;;7.50;6.75;;;;;23.17;48.49;101651.84;5076626;28;45560;-58
2021/07/16 03:37:32;;;;;;;;;10.00;9.00;;;;;23.17;48.46;101643.91;5076082;27;45253;-58
2021/07/16 03:39:57;;;;;;;;;9.00;7.75;;;;;23.17;48.80;101646.56;5076130;27;45308;-56
2021/07/16 03:42:22;;;;;;;;;7.00;7.00;;;;;23.15;48.67;101648.44;5076250;27;45374;-51
2021/07/16 03:44:48;;;;;;;;;7.00;7.00;;;;;23.18;48.54;101647.41;5075194;28;45557;-48
2021/07/16 03:47:14;;;;;;;;;11.50;10.50;;;;;23.15;48.89;101648.44;5076118;27;45338;-49
2021/07/16 03:49:40;;;;;;;;;9.25;7.25;;;;;23.17;48.66;101645.69;5076429;27;45321;-48
2021/07/16 03:52:06;;;;;;;;;8.00;6.75;;;;;23.17;48.49;101651.84;5077122;27;45313;-51
2021/07/16 03:54:32;;;;;;;;;9.50;9.50;;;;;23.16;48.71;101650.13;5080035;27;46060;-54
2021/07/16 03:56:57;;;;;;;;;6.25;6.25;;;;;23.17;48.67;101648.31;5079365;28;46203;-49
2021/07/16 03:59:22;;;;;;;;;10.00;9.00;;;;;23.16;48.61;101650.13;5079636;27;45363;-54
2021/07/16 04:01:48;;;;;;;;;8.00;8.00;;;;;23.16;48.55;101647.50;5079565;28;45299;-53
2021/07/16 04:04:15;;;;;;;;;6.50;6.50;;;;;23.17;48.85;101645.69;5079661;28;45379;-52
2021/07/16 04:06:50;;;;;;;;;8.50;7.50;;;;;23.15;49.00;101640.50;5079708;27;45311;-55
2021/07/16 04:09:27;;;;;;;;;6.25;6.25;;;;;23.16;49.01;101647.50;5079415;27;45759;-53
2021/07/16 04:12:09;;;;;;;;;6.25;6.25;;;;;23.16;48.90;101644.84;5079652;27;45636;-54
2021/07/16 04:14:36;;;;;;;;;8.50;7.50;;;;;23.16;48.88;101649.25;5079738;27;45482;-56
2021/07/16 04:17:06;;;;;;;;;7.50;7.50;;;;;23.16;48.97;101643.97;5077888;27;46364;-53
2021/07/16 04:19:31;;;;;;;;;5.50;5.50;;;;;23.15;48.76;101650.22;5079274;27;45747;-48
2021/07/16 04:21:56;;;;;;;;;8.00;7.00;;;;;23.16;49.15;101649.25;5079325;28;45347;-52
2021/07/16 04:24:22;;;;;;;;;6.50;6.50;;;;;23.16;48.75;101652.78;5078968;28;48190;-51
2021/07/16 04:26:47;;;;;;;;;7.00;7.00;;;;;23.15;48.90;101656.34;5078803;28;54033;-54
2021/07/16 04:29:12;;;;;;;;;3.25;3.00;;;;;23.15;48.90;101652.88;5079259;27;47794;-48
2021/07/16 04:31:38;;;;;;;;;6.75;6.75;;;;;23.16;48.88;101654.56;5079262;27;45307;-54
2021/07/16 04:34:03;;;;;;;;;6.00;6.00;;;;;23.13;48.95;101654.75;5079347;27;45239;-52
2021/07/16 04:36:29;;;;;;;;;10.25;7.00;;;;;23.15;49.06;101660.81;5078941;28;46098;-51
2021/07/16 04:38:54;;;;;;;;;7.00;7.00;;;;;23.15;48.99;101664.28;5078856;27;45399;-51
2021/07/16 04:41:19;;;;;;;;;7.00;7.00;;;;;23.14;49.10;101654.66;5078695;28;50360;-51
2021/07/16 04:43:45;;;;;;;;;8.25;7.00;;;;;23.15;49.16;101663.44;5079216;28;45247;-49
2021/07/16 04:46:10;;;;;;;;;9.00;7.00;;;;;23.13;49.08;101663.50;5078991;28;45436;-52
2021/07/16 04:48:35;;;;;;;;;8.75;6.00;;;;;23.14;49.24;101662.59;5078610;27;50513;-51
2021/07/16 04:51:00;;;;;;;;;6.00;6.00;;;;;23.15;49.21;101663.44;5078802;28;45362;-49
2021/07/16 04:53:26;;;;;;;;;6.00;6.00;;;;;23.15;49.17;101664.28;5078994;28;45165;-52
2021/07/16 04:55:51;;;;;;;;;6.75;5.50;;;;;23.14;49.11;101657.28;5078465;28;45325;-48
2021/07/16 04:58:16;;;;;;;;;7.00;7.00;;;;;23.14;49.37;101673.16;5078421;28;48221;-49
2021/07/16 05:00:42;;;;;;;;;8.00;6.00;;;;;23.14;49.15;101667.88;5078826;27;45496;-48
2021/07/16 05:03:08;;;;;;;;;6.00;5.50;;;;;23.14;49.37;101672.31;5077030;28;45671;-48
2021/07/16 05:05:33;;;;;;;;;6.00;5.00;;;;;23.13;49.24;101668.81;5077777;28;46389;-52
2021/07/16 05:07:58;;;;;;;;;6.75;6.75;;;;;23.13;49.29;101671.44;5078456;28;45302;-49
2021/07/16 05:10:24;;;;;;;;;5.75;5.00;;;;;23.15;48.94;101671.38;5078580;27;45341;-49
2021/07/16 05:12:49;;;;;;;;;6.25;5.75;;;;;23.14;48.90;101662.59;5078705;27;45427;-52
2021/07/16 05:15:15;;;;;;;;;6.50;6.50;;;;;23.13;49.38;101660.88;5078577;28;46480;-48
2021/07/16 05:17:40;;;;;;;;;6.25;5.50;;;;;23.14;49.31;101670.50;5078262;28;45379;-49
2021/07/16 05:20:07;;;;;;;;;8.50;6.75;;;;;23.14;49.35;101670.50;5078813;27;45430;-48
2021/07/16 05:22:32;;;;;;;;;7.00;7.00;;;;;23.14;49.27;101675.81;5078521;28;45300;-56
2021/07/16 05:24:58;;;;;;;;;4.00;3.75;;;;;23.14;49.29;101675.81;5078213;27;46000;-53
2021/07/16 05:27:23;;;;;;;;;6.25;5.25;;;;;23.14;49.58;101669.66;5078156;28;45258;-56
2021/07/16 05:29:49;;;;;;;;;5.00;5.00;;;;;23.14;49.35;101682.91;5078289;27;45215;-58
2021/07/16 05:32:14;;;;;;;;;5.00;5.00;;;;;23.12;49.44;101680.31;5078743;28;45264;-55
2021/07/16 05:34:39;;;;;;;;;7.00;7.00;;;;;23.15;49.35;101684.59;5078158;28;46395;-54
2021/07/16 05:37:05;;;;;;;;;5.50;5.50;;;;;23.14;49.29;101681.09;5076995;27;45291;-49
2021/07/16 05:39:30;;;;;;;;;7.00;7.00;;;;;23.11;49.49;101668.03;5078065;27;45301;-56
2021/07/16 05:41:56;;;;;;;;;6.75;5.25;;;;;23.14;49.36;101677.59;5078365;28;45222;-55
2021/07/16 05:44:21;;;;;;;;;3.75;3.75;;;;;23.13;49.21;101681.19;5077965;27;46191;-57
2021/07/16 05:46:46;;;;;;;;;7.25;6.50;;;;;23.14;49.11;101678.44;5076808;28;45866;-48
2021/07/16 05:49:12;;;;;;;;;3.00;3.00;;;;;23.13;49.40;101683.81;5077175;27;45400;-55
2021/07/16 05:51:37;;;;;;;;;5.00;5.00;;;;;23.13;49.36;101695.25;5078153;27;45489;-51
2021/07/16 05:54:03;;;;;;;;;5.25;5.25;;;;;23.13;49.41;101689.13;5077320;27;45428;-55
2021/07/16 05:56:28;;;;;;;;;5.75;5.00;;;;;23.15;49.20;101689.91;5077653;27;45516;-51
2021/07/16 05:58:54;;;;;;;;;6.00;6.00;;;;;23.13;49.48;101697.88;5077819;28;45475;-53
2021/07/16 06:01:19;;;;;;;;;5.50;5.50;;;;;23.13;49.56;101691.75;5078024;27;45533;-52
2021/07/16 06:03:44;;;;;;;;;7.00;6.00;;;;;23.13;49.24;101697.88;5077865;28;45606;-52
2021/07/16 06:06:10;;;;;;;;;6.75;5.50;;;;;23.14;49.35;101704.88;5077635;27;45303;-52
2021/07/16 06:08:35;;;;;;;;;8.50;6.50;;;;;23.14;49.26;101702.25;5077869;27;45280;-51
2021/07/16 06:11:00;;;;;;;;;7.25;6.00;;;;;23.15;49.23;101697.81;5077522;28;45361;-49
2021/07/16 06:13:26;;;;;;;;;7.50;7.50;;;;;23.15;49.40;101711.06;5077429;27;46273;-50
2021/07/16 06:15:51;;;;;;;;;6.25;5.00;;;;;23.14;49.51;101710.19;5076958;28;45397;-53
2021/07/16 06:18:17;;;;;;;;;4.75;4.75;;;;;23.13;49.67;101703.19;5077873;27;45395;-51
2021/07/16 06:20:45;;;;;;;;;5.00;5.00;;;;;23.12;49.31;101714.69;5077609;28;45540;-53
2021/07/16 06:23:11;;;;;;;;;7.00;6.00;;;;;23.14;49.68;101712.81;5077076;28;45462;-51
2021/07/16 06:25:37;;;;;;;;;6.00;6.00;;;;;23.14;49.44;101722.56;5077237;27;45802;-49
2021/07/16 06:28:03;;;;;;;;;5.00;4.00;;;;;23.13;49.48;101719.03;5075973;27;45632;-50
2021/07/16 06:30:28;;;;;;;;;7.00;5.25;;;;;23.12;49.40;101717.34;5077338;27;45560;-48
2021/07/16 06:32:54;;;;;;;;;7.25;5.00;;;;;23.14;49.62;101717.28;5075816;28;46813;-49
2021/07/16 06:35:19;;;;;;;;;5.00;5.00;;;;;23.13;49.62;101729.63;5077474;28;45809;-47
2021/07/16 06:37:44;;;;;;;;;6.25;6.25;;;;;23.14;49.44;101731.34;5077173;28;48758;-52
2021/07/16 06:40:11;;;;;;;;;4.50;4.50;;;;;23.14;49.63;101736.63;5077152;28;45547;-50
2021/07/16 06:42:36;;;;;;;;;4.25;4.25;;;;;23.13;49.57;101729.63;5076890;28;45480;-49
2021/07/16 06:45:03;;;;;;;;;6.75;5.00;;;;;23.14;49.30;101741.06;5077037;27;45382;-55
2021/07/16 06:47:28;;;;;;;;;5.00;4.00;;;;;23.14;49.49;101739.25;5077149;27;45314;-52
2021/07/16 06:49:54;;;;;;;;;5.50;5.50;;;;;23.14;49.64;101743.72;5077182;27;45223;-53
2021/07/16 06:52:20;;;;;;;;;6.50;5.25;;;;;23.12;49.55;101745.56;5077237;28;45279;-52
2021/07/16 06:54:45;;;;;;;;;4.75;4.75;;;;;23.12;49.54;101738.47;5077110;27;45336;-50
2021/07/16 06:57:10;;;;;;;;;5.25;4.75;;;;;23.13;49.58;101745.50;5076776;28;45220;-52
2021/07/16 06:59:36;;;;;;;;;4.50;3.75;;;;;23.11;49.57;101742.06;5077088;27;45234;-51
2021/07/16 07:02:01;;;;;;;;;4.25;4.25;;;;;23.13;49.33;101752.56;5076723;27;46157;-52
2021/07/16 07:04:27;;;;;;;;;6.50;4.25;;;;;23.12;49.68;101754.34;5076700;27;45488;-54
2021/07/16 07:06:52;;;;;;;;;3.50;3.50;;;;;23.13;49.34;101750.78;5076900;28;45287;-51
2021/07/16 07:09:18;;;;;;;;;4.75;4.75;;;;;23.14;49.49;101756.94;5077120;28;45200;-52
2021/07/16 07:11:43;;;;;;;;;5.50;4.75;;;;;23.14;49.53;101751.66;5076476;28;46412;-50
2021/07/16 07:14:08;;;;;;;;;4.25;4.00;;;;;23.13;49.46;101768.44;5076717;27;45516;-49
2021/07/16 07:16:34;;;;;;;;;5.00;5.00;;;;;23.13;49.38;101774.56;5076671;27;45331;-49
2021/07/16 07:18:59;;;;;;;;;4.50;3.75;;;;;23.12;49.50;101769.38;5076814;27;45608;-48
2021/07/16 07:21:25;;;;;;;;;2.75;2.75;;;;;23.13;49.33;101773.72;5076461;27;46180;-48
2021/07/16 07:23:50;;;;;;;;;3.50;3.50;;;;;23.12;49.29;101767.56;5076880;28;45260;-57
2021/07/16 07:26:16;;;;;;;;;6.00;4.50;;;;;23.12;49.67;101770.22;5076664;27;45302;-56
2021/07/16 07:28:41;;;;;;;;;4.00;4.00;;;;;23.12;49.40;101759.63;5079906;28;45671;-57
2021/07/16 07:31:06;;;;;;;;;7.00;5.00;;;;;23.13;49.36;101771.09;5080015;27;45406;-57
2021/07/16 07:33:32;;;;;;;;;4.25;4.25;;;;;23.13;49.55;101769.28;5080159;27;45330;-58
2021/07/16 07:35:57;;;;;;;;;6.00;4.25;;;;;23.13;49.34;101771.94;5080150;27;45349;-58
2021/07/16 07:38:23;;;;;;;;;3.75;3.00;;;;;23.13;49.55;101771.94;5080053;27;45524;-55
2021/07/16 07:40:49;;;;;;;;;3.50;2.75;;;;;23.13;49.33;101758.72;5080039;27;45994;-58
2021/07/16 07:43:15;;;;;;;;;4.50;4.00;;;;;23.13;49.49;101761.34;5078498;27;45663;-57
2021/07/16 07:45:40;;;;;;;;;4.75;4.00;;;;;23.13;49.61;101776.38;5079920;28;45239;-58
2021/07/16 07:48:06;;;;;;;;;4.25;4.25;;;;;23.14;49.46;101773.66;5080087;28;45455;-55
2021/07/16 07:50:32;;;;;;;;;4.00;3.25;;;;;23.15;49.38;101767.44;5079567;27;45819;-58
2021/07/16 07:52:57;;;;;;;;;3.75;3.00;;;;;23.15;49.46;101769.22;5079659;27;45343;-56
2021/07/16 07:55:24;;;;;;;;;5.75;2.75;;;;;23.15;49.46;101771.88;5080109;27;45358;-50
2021/07/16 07:57:52;;;;;;;;;4.25;3.25;;;;;23.13;49.27;101777.22;5080149;27;45573;-58
2021/07/16 08:00:21;;;;;;;;;3.25;2.00;;;;;23.15;49.32;101780.66;5078299;28;48496;-58
2021/07/16 08:02:47;;;;;;;;;3.00;3.00;;;;;23.13;49.56;101782.50;5079413;27;45221;-58
2021/07/16 08:05:13;;;;;;;;;4.00;2.75;;;;;23.13;49.18;101777.22;5079758;28;45165;-57
2021/07/16 08:07:40;;;;;;;;;4.50;3.00;;;;;23.14;49.27;101778.94;5079966;27;45572;-58
2021/07/16 08:10:08;;;;;;;;;3.50;2.50;;;;;23.13;49.10;101779.03;5079401;27;46003;-54
2021/07/16 08:12:34;;;;;;;;;2.50;2.50;;;;;23.16;49.17;101790.28;5079604;27;45826;-57
2021/07/16 08:15:00;;;;;;;;;4.25;3.00;;;;;23.15;49.03;101791.22;5079497;27;45247;-57
2021/07/16 08:17:26;;;;;;;;;2.00;2.00;;;;;23.16;49.35;101795.56;5079635;27;45536;-56
2021/07/16 08:19:52;;;;;;;;;2.00;2.00;;;;;23.15;48.97;101793.03;5079711;28;45231;-56
2021/07/16 08:22:17;;;;;;;;;3.00;3.00;;;;;23.17;49.07;101794.66;5079328;27;45980;-52
2021/07/16 08:24:43;;;;;;;;;3.00;3.00;;;;;23.15;49.01;101791.22;5079503;28;45687;-58
2021/07/16 08:27:09;;;;;;;;;4.00;2.00;;;;;23.18;48.88;101800.78;5079549;27;45331;-58
2021/07/16 08:29:34;;;;;;;;;3.00;3.00;;;;;23.19;49.12;101801.66;5079133;27;45435;-54
2021/07/16 08:32:00;;;;;;;;;1.75;1.75;;;;;23.17;49.25;101799.06;5079218;27;45487;-54
2021/07/16 08:34:26;;;;;;;;;3.00;3.00;;;;;23.19;48.63;101802.53;5079314;27;45296;-50
2021/07/16 08:36:51;;;;;;;;;3.75;3.50;;;;;23.20;48.54;101808.69;5078310;28;45464;-50
2021/07/16 08:39:17;;;;;;;;;3.00;2.25;;;;;23.20;48.93;101808.69;5078592;27;45296;-57
2021/07/16 08:41:42;;;;;;;;;2.00;1.00;;;;;23.18;49.11;101800.78;5078951;28;45417;-56
2021/07/16 08:44:07;;;;;;;;;2.75;2.75;;;;;23.19;48.80;101802.53;5077852;27;45607;-57
2021/07/16 08:46:34;;;;;;;;;1.75;1.25;;;;;23.19;48.93;101806.94;5079155;28;45322;-54
2021/07/16 08:49:00;;;;;;;;;1.00;1.00;;;;;23.19;49.02;101812.22;5078866;27;45258;-56
2021/07/16 08:51:26;;;;;;;;;2.00;2.00;;;;;23.19;48.87;101807.81;5079126;27;45428;-50
2021/07/16 08:53:54;;;;;;;;;2.00;1.00;;;;;23.19;48.91;101812.22;5079219;27;45223;-51
2021/07/16 08:56:22;;;;;;;;;3.00;3.00;;;;;23.16;48.51;101808.81;5078977;27;45408;-51
2021/07/16 08:58:47;;;;;;;;;1.00;1.00;;;;;23.16;48.51;101808.81;5078766;27;45655;-50
2021/07/16 09:01:13;;;;;;;;;1.50;1.50;;;;;23.19;49.14;101807.81;5078731;28;45365;-51
2021/07/16 09:04:01;;;;;;;;;2.00;2.00;;;;;23.20;48.90;101811.34;5078896;27;45184;-49
2021/07/16 09:06:51;;;;;;;;;2.00;2.00;;;;;23.17;48.88;101813.16;5079255;27;45621;-50
2021/07/16 09:09:46;;;;;;;;;2.00;2.00;;;;;23.18;48.68;101811.34;5078319;27;46265;-54
2021/07/16 09:12:13;;;;;;;;;1.50;1.50;;;;;23.16;48.74;101808.81;5078585;27;45378;-48
2021/07/16 09:14:40;;;;;;;;;1.50;1.50;;;;;23.19;48.48;101826.31;5078546;28;45216;-50
2021/07/16 09:17:09;;;;;;;;;2.00;2.00;;;;;23.20;48.91;101824.56;5078627;27;45603;-48
2021/07/16 09:19:42;;;;;;;;;2.00;2.00;;;;;23.20;48.94;101820.09;5078287;27;46304;-48
2021/07/16 09:22:16;;;;;;;;;2.00;2.00;;;;;23.21;48.58;101820.94;5077140;28;45665;-48
2021/07/16 09:24:51;;;;;;;;;3.00;3.00;;;;;23.23;48.79;101829.66;5077349;27;45243;-48
2021/07/16 09:27:37;;;;;;;;;2.25;1.75;;;;;23.24;48.90;101826.09;5077240;28;45247;-48
2021/07/16 09:30:11;;;;;;;;;2.00;2.00;;;;;23.24;48.59;101826.09;5078060;27;46274;-50
2021/07/16 09:32:42;;;;;;;;;2.75;2.75;;;;;23.24;48.75;101840.19;5078165;27;45541;-48
2021/07/16 09:35:08;;;;;;;;;2.00;2.00;;;;;23.25;48.71;101833.09;5076957;28;45427;-48
2021/07/16 09:37:47;;;;;;;;;2.75;2.75;;;;;23.24;48.62;101831.38;5078157;28;45207;-50
2021/07/16 09:40:19;;;;;;;;;4.00;3.00;;;;;23.25;48.43;101836.59;5077585;27;45486;-48
2021/07/16 09:42:44;;;;;;;;;5.00;3.50;;;;;23.25;48.61;101838.38;5078056;27;45236;-48
2021/07/16 09:45:13;;;;;;;;;3.00;2.25;;;;;23.27;48.37;101841.81;5078067;27;45192;-49
2021/07/16 09:47:38;;;;;;;;;2.00;2.00;;;;;23.27;48.68;101847.09;5078139;27;45454;-49
2021/07/16 09:50:07;;;;;;;;;4.00;3.50;;;;;23.26;48.82;101842.75;5076999;27;46277;-49
2021/07/16 09:52:33;;;;;;;;;5.00;4.25;;;;;23.27;48.82;101847.09;5076624;28;45723;-52
2021/07/16 09:55:09;;;;;;;;;4.50;3.00;;;;;23.28;48.68;101848.81;5078208;27;45314;-50
2021/07/16 09:57:46;;;;;;;;;3.75;3.75;;;;;23.27;48.64;101847.09;5077977;27;45319;-50
2021/07/16 10:00:24;;;;;;;;;2.75;2.75;;;;;23.27;48.35;101855.88;5077849;27;45324;-48
2021/07/16 10:02:54;;;;;;;;;3.50;3.50;;;;;23.27;48.56;101855.88;5077606;27;45673;-48
2021/07/16 10:05:19;;;;;;;;;4.00;2.25;;;;;23.28;48.54;101851.47;5077717;27;45363;-52
2021/07/16 10:07:45;;;;;;;;;2.00;2.00;;;;;23.27;48.49;101841.81;5078034;27;45658;-48
2021/07/16 10:10:16;;;;;;;;;3.00;3.00;;;;;23.27;48.61;101850.59;5077534;27;46282;-51
2021/07/16 10:12:43;;;;;;;;;4.00;3.00;;;;;23.28;48.50;101846.16;5077504;27;45264;-52
2021/07/16 10:15:11;;;;;;;;;4.50;3.00;;;;;23.28;48.60;101848.81;5077534;28;45247;-48
2021/07/16 10:17:37;;;;;;;;;4.00;4.00;;;;;23.26;48.37;101850.69;5077661;27;45245;-54
2021/07/16 10:20:05;;;;;;;;;5.00;4.75;;;;;23.28;48.38;101848.81;5077414;27;46492;-49
2021/07/16 10:22:33;;;;;;;;;3.00;3.00;;;;;23.27;48.61;101847.09;5078135;27;45487;-48
2021/07/16 10:24:58;;;;;;;;;5.50;4.50;;;;;23.27;48.22;101852.38;5076543;27;45320;-57
2021/07/16 10:27:24;;;;;;;;;4.00;4.00;;;;;23.27;48.66;101852.38;5076454;28;45375;-49
2021/07/16 10:30:10;;;;;;;;;4.75;4.75;;;;;23.28;48.61;101859.41;5077098;27;45229;-50
2021/07/16 10:32:45;;;;;;;;;4.00;3.75;;;;;23.25;48.44;101856.91;5077026;27;45239;-49
2021/07/16 10:35:24;;;;;;;;;2.75;2.50;;;;;23.25;48.48;101860.41;5076188;28;45284;-57
2021/07/16 10:37:52;;;;;;;;;5.25;4.25;;;;;23.25;48.52;101864.84;5077469;27;45252;-57
2021/07/16 10:40:40;;;;;;;;;6.00;5.25;;;;;23.24;48.43;101869.28;5076654;27;45395;-54
2021/07/16 10:43:07;;;;;;;;;3.25;3.25;;;;;23.23;48.38;101866.69;5077190;27;45711;-51
2021/07/16 10:45:38;;;;;;;;;8.00;5.00;;;;;23.23;48.21;101866.69;5077267;27;45184;-48
2021/07/16 10:48:09;;;;;;;;;4.75;4.00;;;;;23.23;48.44;101878.16;5077280;27;45408;-51
2021/07/16 10:50:37;;;;;;;;;4.50;3.25;;;;;23.24;48.43;101889.56;5076750;27;46395;-51
2021/07/16 10:53:03;;;;;;;;;5.00;3.00;;;;;23.23;48.06;101885.19;5076973;27;45527;-52
2021/07/16 10:55:28;;;;;;;;;6.00;4.50;;;;;23.23;48.32;101893.13;5077305;27;45290;-54
2021/07/16 10:57:54;;;;;;;;;4.33;4.33;;;;;23.22;48.39;101891.44;5077073;28;45188;-58
2021/07/16 11:00:35;;;;;;;;;7.00;5.50;;;;;23.23;47.91;101887.84;5076633;27;45239;-57
2021/07/16 11:03:08;;;;;;;;;6.00;5.25;;;;;23.20;48.23;101882.75;5075881;28;45368;-57
2021/07/16 11:05:34;;;;;;;;;4.25;4.25;;;;;23.21;48.22;101895.00;5076894;27;45450;-57
2021/07/16 11:08:01;;;;;;;;;5.00;5.00;;;;;23.21;48.13;101897.66;5077208;28;45322;-57
2021/07/16 11:10:46;;;;;;;;;6.25;4.75;;;;;23.16;47.90;101893.44;5076530;27;47013;-58
2021/07/16 11:13:35;;;;;;;;;6.50;6.50;;;;;23.20;47.94;101901.25;5076492;28;45762;-55
2021/07/16 11:16:31;;;;;;;;;6.00;6.00;;;;;23.19;47.97;101902.16;5077046;27;45357;-57
2021/07/16 11:19:03;;;;;;;;;7.75;6.00;;;;;23.19;48.02;101899.50;5068114;27;45228;-50
2021/07/16 11:21:41;;;;;;;;;8.75;7.75;;;;;23.20;47.73;101898.59;5075400;28;47187;-51
2021/07/16 11:24:25;;;;;;;;;6.75;6.00;;;;;23.20;48.01;101903.91;5076336;27;45228;-56